createdAt,value
2018-07-03T00:01:08.543Z,23.00
2018-07-03T00:03:40.574Z,23.00
2018-07-03T00:06:12.545Z,23.00
2018-07-03T00:08:44.085Z,23.00
2018-07-03T00:11:15.879Z,22.90
2018-07-03T00:13:47.484Z,22.90
2018-07-03T00:16:24.421Z,22.80
2018-07-03T00:18:56.285Z,22.80
2018-07-03T00:21:27.886Z,22.70
2018-07-03T00:23:59.354Z,22.70
2018-07-03T00:26:30.827Z,22.60
2018-07-03T00:29:02.327Z,22.60
2018-07-03T00:31:33.809Z,22.60
2018-07-03T00:34:06.202Z,22.50
2018-07-03T00:36:37.946Z,22.50
2018-07-03T00:39:10.149Z,22.40
2018-07-03T00:41:41.691Z,22.40
2018-07-03T00:44:13.561Z,22.40
2018-07-03T00:46:45.406Z,22.30
2018-07-03T00:49:17.137Z,22.30
2018-07-03T00:51:48.710Z,22.30
2018-07-03T00:54:20.669Z,22.20
2018-07-03T00:56:52.166Z,22.20
2018-07-03T00:59:23.802Z,22.10
2018-07-03T01:01:55.433Z,22.10
2018-07-03T01:04:27.011Z,22.00
2018-07-03T01:06:58.954Z,22.00
2018-07-03T01:09:30.489Z,21.90
2018-07-03T01:14:33.494Z,21.80
2018-07-03T01:17:05.048Z,21.30
2018-07-03T01:19:36.573Z,21.70
2018-07-03T01:22:08.291Z,21.70
2018-07-03T01:24:41.077Z,21.60
2018-07-03T01:27:12.562Z,21.60
2018-07-03T01:29:44.085Z,21.50
2018-07-03T01:32:15.663Z,21.50
2018-07-03T01:34:47.449Z,21.40
2018-07-03T01:37:19.108Z,21.40
2018-07-03T01:39:51.096Z,21.40
2018-07-03T01:42:22.746Z,21.30
2018-07-03T01:47:25.325Z,21.20
2018-07-03T01:49:56.897Z,21.20
2018-07-03T01:52:29.056Z,21.10
2018-07-03T01:55:02.060Z,21.10
2018-07-03T01:57:33.494Z,21.00
2018-07-03T02:00:06.286Z,21.00
2018-07-03T02:02:37.791Z,21.00
2018-07-03T02:05:09.480Z,20.90
2018-07-03T02:07:41.046Z,21.00
2018-07-03T02:10:12.662Z,20.90
2018-07-03T02:12:44.828Z,20.80
2018-07-03T02:20:18.420Z,20.80
2018-07-03T02:22:50.151Z,20.70
2018-07-03T02:25:21.716Z,20.70
2018-07-03T02:27:53.329Z,20.60
2018-07-03T02:32:59.101Z,20.60
2018-07-03T02:35:30.685Z,20.40
2018-07-03T02:38:02.206Z,20.50
2018-07-03T02:40:34.028Z,20.50
2018-07-03T02:43:05.501Z,20.40
2018-07-03T02:45:37.313Z,20.40
2018-07-03T02:48:08.954Z,20.40
2018-07-03T02:50:40.777Z,20.30
2018-07-03T02:53:12.192Z,20.30
2018-07-03T02:55:43.802Z,20.30
2018-07-03T02:58:16.826Z,20.20
2018-07-03T03:00:48.346Z,20.20
2018-07-03T03:03:19.880Z,20.20
2018-07-03T03:05:51.944Z,20.20
2018-07-03T03:08:24.914Z,20.20
2018-07-03T03:10:56.552Z,20.10
2018-07-03T03:13:28.205Z,20.10
2018-07-03T03:15:59.651Z,20.10
2018-07-03T03:18:31.097Z,20.00
2018-07-03T03:23:34.289Z,20.00
2018-07-03T03:26:06.456Z,20.00
2018-07-03T03:28:37.997Z,19.90
2018-07-03T03:31:09.817Z,19.90
2018-07-03T03:33:41.598Z,19.90
2018-07-03T03:36:13.110Z,19.80
2018-07-03T03:38:44.638Z,19.80
2018-07-03T03:41:16.550Z,19.80
2018-07-03T03:43:48.024Z,19.80
2018-07-03T03:46:19.646Z,19.80
2018-07-03T03:48:51.392Z,19.80
2018-07-03T03:51:22.912Z,19.70
2018-07-03T03:53:54.993Z,19.70
2018-07-03T03:56:26.620Z,19.70
2018-07-03T03:58:58.884Z,19.70
2018-07-03T04:01:30.366Z,19.70
2018-07-03T04:04:01.865Z,19.70
2018-07-03T04:06:33.603Z,19.70
2018-07-03T04:09:08.031Z,19.60
2018-07-03T04:11:39.583Z,19.60
2018-07-03T04:14:11.173Z,19.60
2018-07-03T04:16:43.054Z,19.60
2018-07-03T04:19:14.502Z,19.60
2018-07-03T04:21:46.059Z,19.60
2018-07-03T04:24:17.730Z,19.70
2018-07-03T04:26:49.769Z,19.60
2018-07-03T04:29:21.265Z,19.60
2018-07-03T04:31:52.765Z,19.60
2018-07-03T04:34:24.229Z,19.60
2018-07-03T04:36:55.890Z,19.60
2018-07-03T04:39:27.600Z,19.60
2018-07-03T04:41:59.223Z,19.60
2018-07-03T04:44:30.728Z,19.60
2018-07-03T04:47:02.248Z,19.60
2018-07-03T04:49:33.980Z,19.60
2018-07-03T04:52:06.429Z,19.60
2018-07-03T04:54:38.021Z,19.60
2018-07-03T04:57:09.792Z,19.70
2018-07-03T04:59:41.252Z,19.70
2018-07-03T05:04:44.505Z,19.80
2018-07-03T05:07:16.150Z,19.80
2018-07-03T05:09:47.971Z,19.80
2018-07-03T05:12:19.510Z,19.80
2018-07-03T05:14:51.155Z,19.90
2018-07-03T05:17:22.771Z,19.90
2018-07-03T05:19:54.538Z,20.00
2018-07-03T05:22:26.201Z,20.00
2018-07-03T05:24:57.833Z,20.00
2018-07-03T05:27:29.420Z,20.10
2018-07-03T05:30:01.163Z,20.10
2018-07-03T05:32:34.064Z,20.20
2018-07-03T05:35:07.112Z,20.20
2018-07-03T05:37:39.092Z,20.30
2018-07-03T05:40:10.775Z,20.30
2018-07-03T05:42:42.290Z,20.40
2018-07-03T05:47:45.391Z,20.50
2018-07-03T05:50:16.913Z,20.50
2018-07-03T05:52:48.793Z,20.60
2018-07-03T05:55:20.425Z,20.70
2018-07-03T05:57:52.394Z,20.70
2018-07-03T06:00:23.826Z,20.80
2018-07-03T06:02:55.294Z,20.90
2018-07-03T06:05:26.783Z,21.00
2018-07-03T06:07:58.213Z,21.10
2018-07-03T06:10:30.057Z,21.20
2018-07-03T06:13:01.765Z,21.20
2018-07-03T06:15:33.266Z,21.30
2018-07-03T06:18:05.329Z,21.40
2018-07-03T06:20:37.396Z,21.50
2018-07-03T06:23:09.001Z,21.60
2018-07-03T06:28:11.541Z,21.70
2018-07-03T06:30:43.115Z,21.80
2018-07-03T06:33:16.301Z,21.80
2018-07-03T06:35:47.995Z,22.00
2018-07-03T06:38:19.860Z,22.10
2018-07-03T06:40:51.713Z,22.10
2018-07-03T06:43:23.711Z,22.20
2018-07-03T06:45:55.531Z,22.30
2018-07-03T06:48:27.568Z,22.40
2018-07-03T06:50:59.201Z,22.50
2018-07-03T06:53:30.855Z,22.60
2018-07-03T06:56:02.584Z,22.70
2018-07-03T06:58:34.509Z,22.80
2018-07-03T07:01:06.451Z,22.90
2018-07-03T07:03:38.266Z,23.00
2018-07-03T07:06:10.024Z,23.10
2018-07-03T07:08:41.691Z,23.20
2018-07-03T07:11:13.784Z,23.30
2018-07-03T07:13:46.849Z,23.40
2018-07-03T07:16:18.429Z,23.50
2018-07-03T07:18:50.199Z,23.60
2018-07-03T07:21:22.305Z,23.70
2018-07-03T07:23:55.281Z,23.70
2018-07-03T07:26:26.920Z,23.90
2018-07-03T07:28:58.874Z,23.90
2018-07-03T07:31:30.781Z,24.00
2018-07-03T07:34:02.650Z,24.10
2018-07-03T07:36:34.268Z,24.20
2018-07-03T07:39:10.626Z,24.30
2018-07-03T07:44:14.110Z,24.50
2018-07-03T07:46:45.579Z,24.60
2018-07-03T07:49:17.529Z,24.70
2018-07-03T07:54:20.378Z,24.90
2018-07-03T07:56:55.255Z,24.90
2018-07-03T07:59:27.905Z,25.00
2018-07-03T08:04:30.834Z,25.20
2018-07-03T08:07:02.411Z,25.30
2018-07-03T08:09:34.498Z,25.40
2018-07-03T08:12:06.333Z,25.40
2018-07-03T08:14:38.243Z,25.50
2018-07-03T08:17:10.437Z,25.60
2018-07-03T08:19:42.050Z,25.70
2018-07-03T08:22:13.785Z,25.80
2018-07-03T08:24:45.573Z,25.90
2018-07-03T08:27:17.229Z,25.90
2018-07-03T08:29:48.790Z,26.00
2018-07-03T08:32:20.831Z,26.10
2018-07-03T08:34:52.954Z,26.10
2018-07-03T08:39:55.601Z,26.20
2018-07-03T08:42:27.463Z,26.30
2018-07-03T08:44:59.600Z,26.30
2018-07-03T08:52:34.697Z,26.60
2018-07-03T08:55:06.953Z,26.70
2018-07-03T08:57:39.124Z,26.80
2018-07-03T09:00:11.259Z,26.90
2018-07-03T09:02:42.774Z,26.90
2018-07-03T09:05:14.753Z,27.10
2018-07-03T09:07:47.343Z,27.20
2018-07-03T09:10:19.313Z,27.20
2018-07-03T09:12:51.126Z,27.30
2018-07-03T09:15:23.272Z,27.40
2018-07-03T09:17:55.177Z,27.40
2018-07-03T09:20:26.989Z,27.50
2018-07-03T09:22:58.519Z,27.60
2018-07-03T09:25:30.200Z,27.70
2018-07-03T09:28:02.007Z,27.80
2018-07-03T09:30:34.444Z,27.90
2018-07-03T09:33:07.289Z,28.00
2018-07-03T09:35:38.820Z,28.10
2018-07-03T09:38:10.395Z,28.20
2018-07-03T09:40:41.953Z,28.30
2018-07-03T09:43:14.119Z,28.40
2018-07-03T09:45:46.141Z,28.50
2018-07-03T09:48:18.444Z,28.60
2018-07-03T09:50:50.618Z,28.80
2018-07-03T09:53:23.610Z,28.90
2018-07-03T09:55:56.038Z,29.10
2018-07-03T09:58:28.397Z,29.20
2018-07-03T10:03:36.993Z,29.60
2018-07-03T10:06:09.504Z,29.70
2018-07-03T10:11:13.712Z,30.10
2018-07-03T10:13:46.078Z,30.20
2018-07-03T10:16:19.617Z,30.30
2018-07-03T10:18:52.003Z,30.40
2018-07-03T10:21:24.780Z,30.50
2018-07-03T10:26:29.135Z,30.80
2018-07-03T10:29:01.712Z,31.00
2018-07-03T10:31:34.260Z,31.80
2018-07-03T10:34:06.614Z,31.70
2018-07-03T10:36:39.102Z,32.10
2018-07-03T10:39:12.692Z,32.50
2018-07-03T10:41:45.072Z,32.90
2018-07-03T10:44:17.618Z,33.30
2018-07-03T10:46:49.790Z,33.70
2018-07-03T10:49:22.217Z,34.00
2018-07-03T10:51:54.795Z,34.40
2018-07-03T10:56:59.701Z,35.00
2018-07-03T10:59:32.482Z,35.20
2018-07-03T11:02:05.914Z,35.40
2018-07-03T11:04:38.113Z,35.60
2018-07-03T11:07:10.642Z,35.80
2018-07-03T11:09:43.539Z,36.10
2018-07-03T11:12:15.875Z,36.40
2018-07-03T11:14:47.924Z,36.70
2018-07-03T11:22:24.534Z,37.70
2018-07-03T11:24:57.048Z,38.00
2018-07-03T11:27:29.535Z,38.30
2018-07-03T11:30:02.041Z,38.60
2018-07-03T11:32:34.344Z,38.80
2018-07-03T11:35:06.952Z,39.10
2018-07-03T11:37:39.080Z,39.30
2018-07-03T11:40:11.392Z,39.50
2018-07-03T11:42:43.925Z,39.60
2018-07-03T11:45:16.044Z,39.80
2018-07-03T11:47:48.115Z,40.00
2018-07-03T11:50:20.313Z,40.20
2018-07-03T11:52:52.281Z,40.40
2018-07-03T11:55:24.469Z,40.50
2018-07-03T11:57:56.416Z,40.60
2018-07-03T12:00:29.090Z,40.70
2018-07-03T12:03:01.117Z,40.80
2018-07-03T12:05:33.545Z,41.10
2018-07-03T12:10:38.191Z,41.50
2018-07-03T12:13:10.474Z,41.80
2018-07-03T12:15:42.321Z,42.10
2018-07-03T12:18:19.637Z,42.20
2018-07-03T12:20:52.048Z,42.30
2018-07-03T12:26:01.263Z,42.40
2018-07-03T12:28:33.407Z,42.50
2018-07-03T12:31:05.770Z,42.60
2018-07-03T12:33:37.557Z,42.80
2018-07-03T12:36:10.724Z,42.80
2018-07-03T12:38:42.911Z,43.00
2018-07-03T12:41:14.962Z,43.20
2018-07-03T12:46:19.216Z,43.40
2018-07-03T12:48:51.553Z,43.40
2018-07-03T12:51:24.064Z,43.50
2018-07-03T12:53:56.267Z,43.50
2018-07-03T12:56:28.361Z,43.60
2018-07-03T12:59:01.225Z,43.50
2018-07-03T13:01:33.466Z,43.40
2018-07-03T13:04:05.687Z,43.30
2018-07-03T13:11:42.894Z,43.40
2018-07-03T13:14:15.247Z,43.40
2018-07-03T13:16:47.290Z,43.50
2018-07-03T13:19:19.888Z,43.60
2018-07-03T13:21:52.009Z,43.60
2018-07-03T13:24:24.325Z,43.70
2018-07-03T13:26:56.267Z,43.80
2018-07-03T13:29:28.539Z,43.90
2018-07-03T13:32:00.344Z,44.00
2018-07-03T13:34:32.399Z,44.40
2018-07-03T13:39:36.380Z,43.90
2018-07-03T13:42:09.934Z,43.80
2018-07-03T13:44:43.184Z,43.70
2018-07-03T13:49:46.258Z,43.70
2018-07-03T13:54:50.193Z,43.60
2018-07-03T13:57:22.186Z,43.50
2018-07-03T13:59:54.002Z,43.40
2018-07-03T14:02:26.645Z,43.10
2018-07-03T14:10:01.937Z,41.50
2018-07-03T14:12:34.966Z,40.80
2018-07-03T14:15:09.390Z,40.20
2018-07-03T14:17:41.496Z,39.50
2018-07-03T14:20:14.083Z,38.90
2018-07-03T14:22:46.206Z,38.70
2018-07-03T14:25:20.211Z,37.90
2018-07-03T14:27:52.452Z,37.60
2018-07-03T14:30:24.589Z,37.30
2018-07-03T14:32:56.941Z,36.90
2018-07-03T14:35:29.408Z,36.60
2018-07-03T14:38:02.249Z,36.40
2018-07-03T14:40:34.456Z,36.10
2018-07-03T14:43:07.661Z,35.90
2018-07-03T14:45:40.081Z,35.60
2018-07-03T14:48:12.362Z,35.40
2018-07-03T14:53:16.837Z,35.10
2018-07-03T14:55:49.305Z,34.90
2018-07-03T14:58:21.379Z,34.80
2018-07-03T15:00:53.808Z,34.80
2018-07-03T15:03:26.627Z,34.70
2018-07-03T15:05:59.240Z,34.60
2018-07-03T15:08:31.293Z,34.60
2018-07-03T15:11:03.914Z,34.60
2018-07-03T15:13:36.611Z,34.50
2018-07-03T15:16:08.844Z,34.50
2018-07-03T15:18:46.821Z,34.40
2018-07-03T15:21:19.056Z,34.50
2018-07-03T15:23:51.543Z,34.60
2018-07-03T15:26:23.884Z,34.90
2018-07-03T15:28:56.311Z,35.20
2018-07-03T15:31:28.476Z,35.50
2018-07-03T15:34:00.864Z,35.90
2018-07-03T15:36:33.010Z,36.30
2018-07-03T15:41:41.037Z,37.10
2018-07-03T15:44:29.843Z,37.40
2018-07-03T15:47:02.119Z,37.80
2018-07-03T15:49:34.465Z,38.10
2018-07-03T15:52:07.431Z,38.30
2018-07-03T15:54:39.605Z,38.50
2018-07-03T15:57:12.403Z,38.70
2018-07-03T15:59:44.941Z,38.90
2018-07-03T16:02:17.188Z,38.90
2018-07-03T16:05:08.594Z,38.90
2018-07-03T16:07:55.164Z,38.80
2018-07-03T16:10:27.761Z,38.70
2018-07-03T16:12:59.862Z,38.50
2018-07-03T16:15:32.127Z,38.40
2018-07-03T16:18:04.743Z,38.10
2018-07-03T16:20:41.528Z,37.90
2018-07-03T16:23:13.884Z,37.50
2018-07-03T16:25:46.183Z,37.20
2018-07-03T16:28:18.931Z,36.90
2018-07-03T16:30:51.862Z,36.60
2018-07-03T16:33:24.178Z,36.40
2018-07-03T16:35:56.270Z,36.10
2018-07-03T16:38:29.024Z,35.90
2018-07-03T16:41:01.231Z,35.70
2018-07-03T16:43:33.413Z,35.50
2018-07-03T16:46:05.955Z,35.20
2018-07-03T16:48:38.474Z,35.10
2018-07-03T16:51:12.208Z,34.90
2018-07-03T16:53:45.711Z,34.80
2018-07-03T16:56:17.985Z,34.60
2018-07-03T17:01:22.066Z,34.30
2018-07-03T17:03:54.171Z,34.20
2018-07-03T17:06:26.304Z,34.20
2018-07-03T17:08:58.527Z,34.10
2018-07-03T17:11:31.291Z,34.00
2018-07-03T17:14:04.324Z,33.90
2018-07-03T17:16:37.203Z,33.80
2018-07-03T17:19:14.590Z,33.70
2018-07-03T17:21:46.775Z,33.60
2018-07-03T17:24:18.941Z,33.60
2018-07-03T17:26:51.571Z,33.50
2018-07-03T17:29:23.639Z,33.40
2018-07-03T17:31:56.420Z,33.30
2018-07-03T17:34:28.550Z,33.30
2018-07-03T17:37:00.821Z,33.20
2018-07-03T17:39:49.834Z,33.10
2018-07-03T17:42:38.377Z,33.10
2018-07-03T17:45:52.435Z,33.00
2018-07-03T17:48:24.581Z,33.00
2018-07-03T17:50:57.298Z,32.90
2018-07-03T17:53:29.554Z,32.80
2018-07-03T17:56:02.138Z,32.70
2018-07-03T17:58:35.140Z,32.70
2018-07-03T18:01:08.680Z,32.70
2018-07-03T18:03:41.474Z,32.60
2018-07-03T18:06:14.333Z,32.60
2018-07-03T18:08:47.061Z,32.50
2018-07-03T18:13:52.195Z,32.40
2018-07-03T18:16:24.961Z,32.30
2018-07-03T18:19:02.660Z,32.30
2018-07-03T18:21:35.112Z,32.20
2018-07-03T18:24:08.041Z,32.10
2018-07-03T18:26:40.379Z,32.10
2018-07-03T18:29:12.780Z,32.10
2018-07-03T18:31:45.238Z,32.00
2018-07-03T18:34:17.687Z,31.90
2018-07-03T18:36:50.040Z,31.90
2018-07-03T18:39:22.280Z,31.80
2018-07-03T18:41:54.564Z,31.80
2018-07-03T18:44:26.770Z,31.70
2018-07-03T18:46:59.217Z,31.70
2018-07-03T18:49:31.437Z,31.60
2018-07-03T18:52:04.266Z,31.50
2018-07-03T18:54:36.383Z,31.50
2018-07-03T18:59:40.966Z,31.40
2018-07-03T19:02:13.272Z,31.30
2018-07-03T19:04:46.052Z,31.30
2018-07-03T19:07:18.168Z,31.20
2018-07-03T19:09:50.647Z,31.10
2018-07-03T19:12:22.866Z,31.10
2018-07-03T19:14:55.635Z,31.00
2018-07-03T19:17:28.433Z,31.00
2018-07-03T19:20:00.985Z,30.90
2018-07-03T19:22:33.384Z,30.90
2018-07-03T19:25:05.844Z,30.90
2018-07-03T19:27:38.207Z,30.80
2018-07-03T19:30:12.346Z,30.70
2018-07-03T19:32:44.898Z,30.60
2018-07-03T19:35:17.300Z,30.60
2018-07-03T19:37:49.773Z,30.50
2018-07-03T19:40:22.485Z,30.40
2018-07-03T19:43:33.398Z,30.40
2018-07-03T19:46:05.890Z,30.30
2018-07-03T19:48:37.583Z,30.20
2018-07-03T19:51:09.911Z,30.10
2018-07-03T19:53:42.348Z,30.10
2018-07-03T19:56:14.914Z,30.00
2018-07-03T19:58:47.512Z,29.90
2018-07-03T20:01:19.709Z,29.80
2018-07-03T20:03:51.735Z,29.80
2018-07-03T20:06:24.484Z,29.70
2018-07-03T20:08:56.113Z,29.60
2018-07-03T20:11:27.884Z,29.60
2018-07-03T20:13:59.773Z,29.50
2018-07-03T20:19:03.056Z,29.30
2018-07-03T20:21:35.069Z,29.30
2018-07-03T20:24:07.596Z,29.20
2018-07-03T20:26:40.462Z,29.20
2018-07-03T20:29:13.124Z,29.10
2018-07-03T20:31:45.241Z,29.00
2018-07-03T20:34:17.173Z,28.90
2018-07-03T20:36:49.129Z,28.90
2018-07-03T20:39:20.808Z,28.80
2018-07-03T20:41:52.558Z,28.70
2018-07-03T20:44:24.503Z,28.70
2018-07-03T20:51:58.905Z,28.50
2018-07-03T20:54:30.699Z,28.40
2018-07-03T20:57:03.334Z,28.40
2018-07-03T20:59:35.655Z,28.30
2018-07-03T21:02:07.246Z,28.20
2018-07-03T21:04:39.039Z,28.20
2018-07-03T21:07:11.134Z,28.10
2018-07-03T21:12:13.658Z,28.10
2018-07-03T21:14:45.246Z,28.00
2018-07-03T21:17:17.328Z,28.00
2018-07-03T21:19:48.921Z,27.90
2018-07-03T21:22:20.621Z,27.80
2018-07-03T21:24:52.491Z,27.80
2018-07-03T21:27:24.141Z,27.80
2018-07-03T21:29:55.712Z,27.70
2018-07-03T21:32:27.462Z,27.70
2018-07-03T21:34:59.081Z,27.70
2018-07-03T21:37:31.068Z,27.70
2018-07-03T21:40:02.649Z,27.60
2018-07-03T21:42:34.426Z,27.60
2018-07-03T21:45:07.392Z,27.60
2018-07-03T21:47:39.042Z,27.60
2018-07-03T21:50:10.675Z,27.60
2018-07-03T21:52:42.665Z,27.60
2018-07-03T21:55:14.413Z,27.50
2018-07-03T22:00:17.501Z,27.50
2018-07-03T22:02:49.421Z,27.50
2018-07-03T22:05:21.190Z,27.40
2018-07-03T22:07:53.084Z,27.40
2018-07-03T22:10:25.110Z,27.40
2018-07-03T22:12:56.687Z,27.40
2018-07-03T22:15:28.696Z,27.30
2018-07-03T22:18:00.330Z,27.30
2018-07-03T22:20:31.910Z,27.20
2018-07-03T22:23:03.867Z,27.20
2018-07-03T22:25:35.695Z,27.10
2018-07-03T22:28:07.313Z,27.10
2018-07-03T22:30:39.091Z,27.00
2018-07-03T22:33:10.653Z,27.00
2018-07-03T22:35:42.222Z,27.00
2018-07-03T22:38:13.948Z,26.90
2018-07-03T22:43:17.197Z,26.80
2018-07-03T22:45:49.076Z,26.80
2018-07-03T22:53:23.130Z,26.70
2018-07-03T22:55:54.725Z,26.60
2018-07-03T22:58:27.299Z,26.60
2018-07-03T23:00:59.274Z,26.50
2018-07-03T23:03:31.273Z,26.50
2018-07-03T23:06:03.126Z,26.40
2018-07-03T23:08:34.989Z,26.40
2018-07-03T23:11:06.625Z,26.40
2018-07-03T23:13:38.509Z,26.30
2018-07-03T23:16:10.073Z,26.30
2018-07-03T23:21:13.350Z,26.20
2018-07-03T23:23:45.251Z,26.10
2018-07-03T23:26:16.754Z,26.10
2018-07-03T23:28:48.413Z,26.00
2018-07-03T23:31:20.163Z,26.00
2018-07-03T23:33:52.448Z,25.90
2018-07-03T23:36:24.029Z,25.90
2018-07-03T23:38:55.597Z,25.80
2018-07-03T23:43:58.216Z,25.80
2018-07-03T23:46:46.589Z,25.70
2018-07-03T23:49:40.841Z,25.70
2018-07-03T23:52:35.092Z,25.60
2018-07-03T23:55:29.109Z,25.60
2018-07-03T23:58:23.279Z,25.60
